Onitsha, Nigeria
Current Conditions -  °F | °C
As of 12:00 PM on Sunday 23 Nov 2014 (Local Time) from FGSL Reporting Station
Broken Clouds Broken Clouds  
Wind Chill: 84°   Ceiling: 10000
Heat Index: 94°   Visibility: 6mi
Dew Point: 77°   Wind: 7mph
Humidity: 79%   Direction: 260°W
Pressure: 29.91"   Gusts: NA
Location:  6.16°N, 6.78°E
Report Text: FGSL 231100Z 26006KT 9999 FEW008 FEW020CB BKN100 29/25 Q1013 NOSIG
Loading
Personal Weather Stations






























Interactive Weather Map New forecast layout! Learn more

10-Day Weather Forecast

Advertisements
Track Severe Weather on mobile